Tiempo atmosférico en la estación meteorológica de Almería Aeropuerto, Almería (21 m.)



Fecha
DESCASC
Temp. máxima en grados centígrados (hora)
DESCASC
Temp. mínima en grados centígrados (hora)
DESCASC
Temp. media en grados centígrados
DESCASC
Racha de viento máxima en m/sg (hora)
DESCASC
Velocidad máxima media en intervalos de 10 minutos(hora)
DESCASC
Precipitaciones diarias en mm
DESCASC
Precipitaciones de 00:00 a 06:00 en mm
DESCASC
Precipitaciones de 06:00 a 12:00 en mm
DESCASC
Precipitaciones de 12:00 a 18:00 en mm
DESCASC
Precipitaciones de 18:00 a 24:00 en mm
DESCASC
02-04-2020 16.5 (15:10) 9.4 (06:00) 12.9 12.78 (16:10) 8.89 (16:20) 2.1 0 0.3 1.8 0
01-04-2020 19.6 (16:50) 13.4 (08:40) 16.5 18.06 (17:00) 13.61 (17:00) 0 0 0 0 0
31-03-2020 18.7 (15:40) 12.6 (00:00) 15.7 9.72 (04:20) 6.67 (04:30) 5.9 0.1 5.8 0 0
30-03-2020 19.3 (15:50) 11.6 (00:00) 15.4 8.33 (13:00) 6.67 (13:20) 0 0 0 0 0
29-03-2020 18.7 (15:10) 8.3 (00:00) 13.5 8.33 (14:20) 6.39 (14:20) 0 0 0 0 0
28-03-2020 19.9 (15:00) 9.3 (00:00) 14.6 11.67 (11:40) 8.61 (11:50) 0 0 0 0 0
27-03-2020 18.4 (13:50) 12.6 (00:00) 15.5 12.78 (00:10) 9.17 (00:10) 0 0 0 0 0
26-03-2020 20 (17:20) 8.7 (00:00) 14.3 13.89 (23:50) 10.28 (23:50) 0 0 0 0 0
25-03-2020 16.3 (17:30) 10.8 (00:00) 13.5 15 (01:40) 10 (01:50) 0 0 0 0 0
24-03-2020 17.8 (11:10) 13.8 (00:00) 15.8 24.72 (11:10) 15.83 (09:10) 1.8 0 0 1.8 0
23-03-2020 18.2 (13:20) 10.1 (00:00) 14.2 18.89 (22:10) 13.33 (22:10) 1.6 0 1.5 0.1 0
22-03-2020 15 (16:10) 11 (08:00) 13 12.78 (01:50) 8.33 (01:50) 4.7 0.3 4.3 0.1 0
21-03-2020 18.2 (16:20) 9.8 (00:00) 14 15 (18:10) 10.83 (20:20) 11.9 0 11.9 0 0
20-03-2020 21.1 (14:10) 13.9 (00:00) 17.5 16.94 (10:00) 11.39 (09:40) 0 0 0 0 0
19-03-2020 20.7 (14:00) 15.7 (00:00) 18.2 18.61 (14:30) 12.5 (15:10) 0 0 0 0 0
18-03-2020 21.5 (14:40) 16 (00:00) 18.8 21.11 (12:40) 14.72 (12:50) 0 0 0 0 0
17-03-2020 19.8 (12:30) 10.1 (00:00) 14.9 18.06 (23:40) 12.22 (23:59) 0 0 0 0 0
16-03-2020 19.1 (13:30) 12.2 (00:00) 15.7 16.39 (17:10) 12.78 (17:20) 0.4 0 0.4 0 0
15-03-2020 21.5 (12:00) 11.2 (00:00) 16.3 9.17 (18:20) 6.67 (12:30) 0.5 0 0 0.5 0
14-03-2020 20.3 (14:20) 11.9 (00:00) 16.1 6.67 (15:00) 4.72 (12:10) 0 0 0 0 0
13-03-2020 21.6 (16:20) 12.5 (06:30) 17.1 8.89 (16:20) 6.39 (16:40) 0 0 0 0 0
12-03-2020 28.1 (11:20) 13.4 (00:00) 20.8 10.83 (08:50) 7.22 (08:50) 0 0 0 0 0
11-03-2020 23 (17:20) 11.7 (00:00) 17.3 6.11 (00:50) 4.44 (01:00) 0 0 0 0 0
10-03-2020 21.6 (01:50) 11.5 (00:00) 16.6 11.67 (00:30) 6.11 (00:30) 0 0 0 0 0
09-03-2020 21.8 (16:00) 11.4 (00:00) 16.6 8.33 (01:10) 5.28 (01:50) 0 0 0 0 0
08-03-2020 19 (15:10) 8.1 (00:00) 13.6 8.89 (18:20) 6.39 (18:20) 0 0 0 0 0
07-03-2020 18.5 (12:10) 11.7 (00:00) 15.1 11.67 (13:50) 8.61 (13:50) 0 0 0 0 0
06-03-2020 20.6 (13:50) 15.1 (00:00) 17.9 16.11 (07:10) 10.28 (07:10) 0 0 0 0 0
05-03-2020 21.3 (15:00) 10.1 (00:00) 15.7 19.72 (21:50) 13.33 (21:50) 0 0 0 0 0

Gráficas

Temp. máximas Temp. mínimas Temp. medias Precipitaciones Rachas de viento máximas Velocidades máximas media en intervalos de 10 minutos

Datos horarios

Fecha y hora oficial Temperatura (ºC) Velocidad del viento (km/h) Dirección del viento Racha (km/h) Dirección de racha Precipitación (mm) Presión (hPa) Tendencia (hPa) Humedad (%)
2020-04-03 23:00:00 13.3 9 Norte 11 Norte 0 1015.8 1.2 84
2020-04-03 22:00:00 14.5 6 Nordeste 8 Nordeste 0 1015.3 0.9 80
2020-04-03 21:00:00 15.1 4 Sudeste 9 Sur 0 1014.9 0.6 75
2020-04-03 20:00:00 16.7 8 Sur 15 Sur 0 1014.6 0.2 69
2020-04-03 19:00:00 17.8 10 Sur 17 Sur 0 1014.4 -0.5 65
2020-04-03 18:00:00 18.6 13 Sur 17 Sur 0 1014.3 -1 59
2020-04-03 17:00:00 18.7 13 Sur 21 Sur 0 1014.4 -1 57
2020-04-03 16:00:00 18.7 14 Sur 18 Sur 0 1014.9 -0.6 57
2020-04-03 15:00:00 18.2 13 Sur 18 Sudoeste 0 1015.3 0 65
2020-04-03 14:00:00 18.2 15 Sur 18 Sur 0 1015.4 0.6 62
2020-04-03 13:00:00 17.8 13 Sudoeste 17 Sudoeste 0 1015.5 1.5 60
2020-04-03 12:00:00 17.4 10 Sur 13 Sur 0 1015.3 1.9 56
2020-04-03 11:00:00 16.9 8 Sur 13 Sudeste 0 1014.8 1.9 56
2020-04-03 10:00:00 14.9 4 Noroeste 13 Norte 0 1014 1.6 59
2020-04-03 09:00:00 12 12 Norte 22 Norte 0 1013.4 1.3 71
2020-04-03 08:00:00 9.7 13 Noroeste 17 Noroeste 0 1012.9 1 84
2020-04-03 07:00:00 9.6 12 Norte 15 Noroeste 0 1012.4 0.6 84
2020-04-03 06:00:00 10.4 9 Norte 13 Nordeste 0 1012.1 0.7 81
2020-04-03 05:00:00 10.3 9 Norte 13 Norte 0 1011.9 0.6 84
2020-04-03 04:00:00 12.1 7 Norte 15 Sudeste 0 1011.8 0.5 70
2020-04-03 03:00:00 11.7 7 Sudeste 18 Noroeste 0 1011.4 0.2 72
2020-04-03 02:00:00 11.5 11 Norte 17 Norte 0 1011.3 0.3 72
2020-04-03 01:00:00 12 2 Nordeste 11 Este 0 1011.3 1.3 75
2020-04-03 00:00:00 11.6 -- -- -- -- 0 1011.2 2.1 83
2020-04-02 23:00:00 11.9 6 Norte 13 Oeste 0 1011 2.2 81
2020-04-02 22:00:00 11.8 6 Noroeste 13 Norte 0 1010 1.3 80
2020-04-02 21:00:00 12.5 8 Oeste 15 Oeste 0 1009.1 0.8 77
2020-04-02 20:00:00 13.9 13 Sudoeste 26 Sudoeste 0 1008.8 0.4 69
2020-04-02 19:00:00 15.4 17 Sudoeste 28 Sudoeste 0 1008.7 -0.6 63
2020-04-02 18:00:00 14.8 24 Sudoeste 32 Sudoeste 0 1008.3 -0.6 60
2020-04-02 17:00:00 14.4 22 Sudoeste 46 Sudoeste 0 1008.4 -1 65
2020-04-02 16:00:00 15.6 22 Sudoeste 30 Sudoeste 0 1009.3 -0.3 67
2020-04-02 15:00:00 15.6 5 Sur 11 Este 0.4 1008.9 -0.9 63
2020-04-02 14:00:00 12.2 6 Sur 42 Oeste 1.4 1009.4 -0.2 82
2020-04-02 13:00:00 14.5 14 Oeste 32 Oeste 0 1009.6 1 63
2020-04-02 12:00:00 13.1 22 Oeste 45 Oeste 0.3 1009.8 1.2 80
2020-04-02 11:00:00 13.8 29 Sudoeste 41 Sudoeste 0 1009.6 1.2 75
2020-04-02 10:00:00 15.3 5 Noroeste 15 Norte 0 1008.6 0.1 57
2020-04-02 09:00:00 12.1 14 Norte 18 Noroeste 0 1008.6 0.1 69
2020-04-02 08:00:00 10.4 12 Noroeste 17 Norte 0 1008.4 -0.3 77
2020-04-02 07:00:00 10.1 7 Sudoeste 21 Norte 0 1008.5 -0.3 79
2020-04-02 06:00:00 9.7 11 Norte 15 Norte 0 1008.5 -0.9 82
2020-04-02 05:00:00 10.1 7 Noroeste 13 Oeste 0 1008.7 -0.8 82
2020-04-02 04:00:00 11.3 6 Norte 13 Nordeste 0 1008.8 -0.9 76
2020-04-02 03:00:00 11.7 10 Norte 18 Norte 0 1009.4 -0.4 80
2020-04-02 02:00:00 13 8 Norte 21 Oeste 0 1009.5 -0.1 79
2020-04-02 01:00:00 14.5 18 Oeste 35 Sudoeste 0 1009.7 0.9 77
2020-04-02 00:00:00 14.9 14 Sudoeste 30 Sudoeste 0 1009.8 1.5 73
2020-04-01 23:00:00 15.5 28 Sudoeste 46 Sudoeste 0 1009.6 1.7 68
2020-04-01 22:00:00 15.4 30 Sudoeste 48 Oeste 0 1008.8 1.2 80
2020-04-01 21:00:00 15.9 35 Sudoeste 59 Oeste 0 1008.3 0.6 67
2020-04-01 20:00:00 17.2 41 Sudoeste 59 Sudoeste 0 1007.9 0.2 62
2020-04-01 19:00:00 17.8 44 Sudoeste 61 Sudoeste 0 1007.6 -0.5 67
2020-04-01 18:00:00 17.7 45 Sudoeste 65 Sudoeste 0 1007.7 -0.8 61
2020-04-01 17:00:00 19.3 49 Sudoeste 65 Sudoeste 0 1007.7 -1.6 62
2020-04-01 16:00:00 19.1 37 Sudoeste 58 Sudoeste 0 1008.1 -1.3 66
2020-04-01 15:00:00 18.6 42 Sudoeste 55 Sudoeste 0 1008.5 -1.5 70
2020-04-01 14:00:00 18.5 36 Sudoeste 48 Sudoeste 0 1009.3 -0.8 74
2020-04-01 13:00:00 18.2 33 Sudoeste 42 Sudoeste 0 1009.4 -0.2 74
2020-04-01 12:00:00 17.6 28 Sudoeste 37 Sudoeste 0 1010 0.7 80
2020-04-01 11:00:00 17.1 21 Sudoeste 30 Sudoeste 0 1010.1 1.3 79
2020-04-01 10:00:00 15.1 23 Sudoeste 32 Oeste 0 1009.6 1.5 85
2020-04-01 09:00:00 14.8 18 Sudoeste 30 Sudoeste 0 1009.3 1.4 88
2020-04-01 08:00:00 13.5 11 Oeste 18 Noroeste 0 1008.8 0.2 84
2020-04-01 07:00:00 14.2 10 Oeste 24 Sudoeste 0 1008.1 -0.4 87
2020-04-01 06:00:00 14.6 16 Sudoeste 22 Sudoeste 0 1007.9 -1.2 81
2020-04-01 05:00:00 14.9 12 Sudoeste 17 Sudoeste 0 1008.6 -0.3 85
2020-04-01 04:00:00 14.4 5 Oeste 24 Oeste 0 1008.5 -0.3 85
2020-04-01 03:00:00 15.4 7 Sudoeste 13 Oeste 0 1009.1 0.5 85
2020-04-01 02:00:00 15.4 9 Oeste 24 Sudoeste 0 1008.9 0.3 83
2020-04-01 01:00:00 16 11 Sur 17 Sur 0 1008.8 0.9 87
2020-04-01 00:00:00 15.5 8 Sur 18 Sur 0 1008.6 1.4 87
2020-03-31 23:00:00 15.3 7 Sur 9 Sudoeste 0 1008.6 2.4 89
2020-03-31 22:00:00 15.2 8 Noroeste 18 Sur 0 1007.9 2 89
2020-03-31 21:00:00 15.8 12 Sur 17 Sur 0 1007.2 1.2 87
2020-03-31 20:00:00 16.6 8 Sur 13 Sur 0 1006.2 0.3 81
2020-03-31 19:00:00 17.6 10 Sur 15 Sur 0 1005.9 -0.1 76
2020-03-31 18:00:00 18.2 13 Sur 17 Sudoeste 0 1006 -0.2 73
2020-03-31 17:00:00 18.4 14 Sur 18 Sur 0 1005.9 -0.1 73
2020-03-31 16:00:00 18.4 12 Sudoeste 18 Sudoeste 0 1006 0.1 70
2020-03-31 15:00:00 16.8 9 Sur 22 Sur 0 1006.2 0.2 79
2020-03-31 14:00:00 17.3 13 Sur 18 Sur 0 1006 -0.2 74
2020-03-31 13:00:00 17.7 11 Sudoeste 15 Sudoeste 0 1005.9 0.4 71
2020-03-31 12:00:00 17.4 7 Este 13 Este 0 1006 0.7 71
2020-03-31 11:00:00 14.8 8 Nordeste 15 Noroeste 0.3 1006.2 1.2 86
2020-03-31 10:00:00 13.8 11 Noroeste 17 Noroeste 0 1005.5 -0.7 85
2020-03-31 09:00:00 12.8 3 Norte 18 Este 0.5 1005.3 1 91
2020-03-31 08:00:00 12.9 10 Este 17 Oeste 0.7 1005 1.7 95
2020-03-31 07:00:00 12.8 17 Oeste 30 Noroeste 4.3 1006.2 1.9 93
2020-03-31 06:00:00 14.4 11 Norte 30 Oeste 0.1 1004.3 -1.1 83
2020-03-31 05:00:00 15.1 13 Norte 35 Nordeste 0 1003.3 -3 68
2020-03-31 04:00:00 14.6 22 Nordeste 32 Nordeste 0 1004.3 -2.5 84
2020-03-31 03:00:00 14.7 17 Nordeste 28 Nordeste 0 1005.4 -1.9 84
2020-03-31 02:00:00 14.8 14 Nordeste 30 Nordeste 0 1006.3 -0.9 85
2020-03-31 01:00:00 15.1 16 Nordeste 26 Nordeste 0 1006.8 0.3 85
2020-03-31 00:00:00 15.5 17 Nordeste 28 Este 0 1007.3 1.2 83
2020-03-30 23:00:00 15.1 9 Este 13 Este 0 1007.2 1.1 82
2020-03-30 22:00:00 15.4 10 Este 13 Este 0 1006.5 0.4 82
2020-03-30 21:00:00 15.8 8 Este 9 Este 0 1006.1 -0.2 82
2020-03-30 20:00:00 16.6 5 Sur 21 Sudoeste 0 1006.1 -0.6 79
2020-03-30 19:00:00 17.3 13 Sudoeste 21 Sudoeste 0 1006.1 -1.5 76
2020-03-30 18:00:00 18.4 15 Sur 24 Sur 0 1006.3 -2 73
2020-03-30 17:00:00 18.7 17 Sur 24 Sur 0 1006.7 -2.3 71
2020-03-30 16:00:00 18.8 17 Sur 24 Sur 0 1007.6 -1.9 71
2020-03-30 15:00:00 18.6 18 Sur 28 Sur 0 1008.3 -1.7 72
2020-03-30 14:00:00 18.8 21 Sur 30 Sudoeste 0 1009 -1.4 71
2020-03-30 13:00:00 17.7 21 Sur 30 Sudoeste 0 1009.5 -0.8 74
2020-03-30 12:00:00 17.1 14 Sur 21 Sudoeste 0 1010 -0.2 75
2020-03-30 11:00:00 16.8 9 Sur 15 Sudoeste 0 1010.4 0.5 74
2020-03-30 10:00:00 15.2 3 Oeste 13 Noroeste 0 1010.3 0.4 71
2020-03-30 09:00:00 12.9 9 Noroeste 13 Noroeste 0 1010.2 -0.1 83
2020-03-30 08:00:00 12.9 5 Norte 11 Noroeste 0 1009.9 -1.2 84
2020-03-30 07:00:00 12.4 10 Noroeste 15 Noroeste 0 1009.9 -1.8 83
2020-03-30 06:00:00 12.2 7 Noroeste 15 Noroeste 0 1010.3 -2 86
2020-03-30 05:00:00 11.9 4 Norte 11 Oeste 0 1011.1 -1.7 88
2020-03-30 04:00:00 12.6 4 Noroeste 17 Oeste 0 1011.7 -1.8 85
2020-03-30 03:00:00 14.3 12 Sudoeste 26 Sudoeste 0 1012.3 -1.5 82
2020-03-30 02:00:00 14.1 13 Sudoeste 22 Sudoeste 0 1012.8 -1.2 80
2020-03-30 01:00:00 13.7 11 Sudoeste 17 Sudoeste 0 1013.5 -0.6 80
2020-03-30 00:00:00 13.7 7 Oeste 18 Oeste 0 1013.8 -0.2 78
2020-03-29 23:00:00 14 8 Oeste 18 Sudoeste 0 1014 -0.3 76
2020-03-29 22:00:00 15 13 Sudoeste 21 Sudoeste 0 1014.1 -0.2 73
2020-03-29 21:00:00 15.2 14 Sudoeste 24 Sudoeste 0 1014 -0.3 71
2020-03-29 20:00:00 15.9 18 Sudoeste 28 Sur 0 1014.3 -0.3 66
2020-03-29 19:00:00 17.3 18 Sur 26 Sur 0 1014.3 -0.8 58
2020-03-29 18:00:00 17.7 20 Sur 28 Sur 0 1014.3 -1.4 60
2020-03-29 17:00:00 18.2 19 Sur 30 Sur 0 1014.6 -1.5 58
2020-03-29 16:00:00 18.3 22 Sur 30 Sur 0 1015.1 -1.5 59
2020-03-29 15:00:00 18.3 22 Sur 30 Sur 0 1015.7 -1.1 63
2020-03-29 14:00:00 18.1 19 Sur 26 Sur 0 1016.1 -0.5 65
2020-03-29 13:00:00 17.4 16 Sur 22 Sur 0 1016.6 0.2 68
2020-03-29 12:00:00 16.6 13 Sur 18 Sudoeste 0 1016.8 0.5 69
2020-03-29 11:00:00 16.3 12 Sudoeste 17 Sudoeste 0 1016.6 0.5 64
2020-03-29 10:00:00 13.7 10 Noroeste 24 Noroeste 0 1016.4 0.5 64
2020-03-29 09:00:00 10.8 17 Noroeste 26 Noroeste 0 1016.3 0.2 75
2020-03-29 08:00:00 9.7 17 Noroeste 24 Noroeste 0 1016.1 -0.2 80
2020-03-29 07:00:00 10 14 Noroeste 22 Noroeste 0 1015.9 -1 81
2020-03-29 06:00:00 10.4 15 Noroeste 24 Noroeste 0 1016.1 -1.3 81
2020-03-29 05:00:00 9.1 5 Norte 15 Noroeste 0 1016.3 -1.5 87
2020-03-29 03:00:00 10.2 -- -- -- -- 0 1017.4 -0.5 85
2020-03-29 01:00:00 10.8 9 Norte 11 Norte 0 1017.8 -- 83
2020-03-29 00:00:00 11.6 10 Norte 13 Norte 0 1018 1 81
2020-03-28 23:00:00 12.7 5 Norte -- -- 0 1017.9 1.8 75
2020-03-28 22:00:00 13.4 0 Calma 9 Este 0 -- -- 72
2020-03-28 21:00:00 14.1 9 Este 17 Este 0 1017 2 68
2020-03-28 20:00:00 14.4 12 Este 18 Este 0 1016.1 1.8 63
2020-03-28 19:00:00 15.1 12 Este 24 Este 0 1015.5 1.6 59
2020-03-28 18:00:00 15.8 15 Este 32 Sudeste 0 1015 1 55
2020-03-28 17:00:00 17.3 25 Sudeste 39 Sudeste 0 1014.3 0 50
2020-03-28 16:00:00 18.3 22 Este 33 Este 0 1013.9 -0.7 47
2020-03-28 15:00:00 19.7 24 Este 39 Este 0 1014 -0.8 44
2020-03-28 14:00:00 19.5 26 Este 42 Este 0 1014.3 -0.8 43
2020-03-28 13:00:00 18.9 28 Este 42 Este 0 1014.6 -0.3 44
2020-03-28 12:00:00 16.4 30 Este 42 Este 0 1014.8 0.5 46
2020-03-28 11:00:00 15.6 8 Norte 26 Nordeste 0 1015.1 1.4 58
2020-03-28 10:00:00 12.6 13 Noroeste 18 Noroeste 0 1014.9 2 77
2020-03-28 09:00:00 11.7 9 Noroeste 28 Nordeste 0 1014.3 2.1 82
2020-03-28 08:00:00 11.8 14 Nordeste 24 Nordeste 0 1013.7 2 75
2020-03-28 07:00:00 10.9 9 Nordeste 18 Nordeste 0 1012.9 1 85
2020-03-28 06:00:00 11.3 11 Norte 24 Noroeste 0 1012.2 0.3 79
2020-03-28 05:00:00 11.2 14 Norte 26 Noroeste 0 1011.7 -0.4 86
2020-03-28 04:00:00 11.9 17 Noroeste 30 Noroeste 0 1011.9 0 78
2020-03-28 03:00:00 12.1 18 Noroeste 28 Noroeste 0 1011.9 0.1 74
2020-03-28 02:00:00 12.5 12 Noroeste 21 Norte 0 1012.1 0.8 75
2020-03-28 01:00:00 13.2 13 Nordeste 24 Nordeste 0 1011.9 1 71
2020-03-28 00:00:00 13.7 15 Nordeste 22 Este 0 1011.8 1.6 66
2020-03-27 23:00:00 13.5 17 Nordeste 28 Este 0 1011.3 1.9 69
2020-03-27 22:00:00 13 20 Nordeste 32 Este 0 1010.9 2 79
2020-03-27 21:00:00 13.2 13 Nordeste 21 Este 0 1010.2 1.8 70
2020-03-27 20:00:00 13.7 15 Este 24 Este 0 1009.4 1.5 68
2020-03-27 19:00:00 14.7 16 Este 21 Este 0 1008.9 0.9 62
2020-03-27 18:00:00 15.9 10 Este 21 Este 0 1008.4 0.1 58
2020-03-27 17:00:00 16.1 13 Este 26 Este 0 1007.9 -0.8 58
2020-03-27 16:00:00 17.2 16 Sudeste 22 Sur 0 1008 -1.2 54
2020-03-27 15:00:00 17.2 15 Sudeste 30 Este 0 1008.3 -1.3 53
2020-03-27 14:00:00 17.3 14 Este 28 Nordeste 0 1008.7 -1 49
2020-03-27 13:00:00 16.4 17 Nordeste 28 Este 0 1009.2 0 50
2020-03-27 12:00:00 15.8 19 Nordeste 26 Nordeste 0 1009.6 0.8 54
2020-03-27 11:00:00 14.3 17 Nordeste 33 Nordeste 0 1009.7 1.4 62
2020-03-27 10:00:00 14.1 20 Nordeste 32 Nordeste 0 1009.2 1.3 64
2020-03-27 09:00:00 13.3 17 Nordeste 33 Nordeste 0 1008.8 1.2 65
2020-03-27 08:00:00 12.6 24 Nordeste 35 Nordeste 0 1008.3 0.5 68
2020-03-27 07:00:00 13.2 21 Nordeste 33 Nordeste 0 1007.9 0.1 69
2020-03-27 06:00:00 13.4 22 Nordeste 33 Nordeste 0 1007.6 -0.1 67
2020-03-27 05:00:00 13.5 20 Nordeste 33 Nordeste 0 1007.8 0 67
2020-03-27 04:00:00 13.7 23 Nordeste 35 Este 0 1007.8 0 65
2020-03-27 03:00:00 13.9 21 Nordeste 37 Nordeste 0 1007.7 0.4 69
2020-03-27 02:00:00 14 26 Nordeste 41 Nordeste 0 1007.8 1.1 71
2020-03-27 01:00:00 13.8 28 Nordeste 46 Nordeste 0 1007.8 1.8 73
2020-03-27 00:00:00 14.2 31 Nordeste 50 Nordeste 0 1007.3 2.1 78
2020-03-26 23:00:00 13.9 14 Este 26 Este 0 1006.7 2.7 80
2020-03-26 22:00:00 14.8 14 Este 32 Este 0 1006 2.5 86
2020-03-26 21:00:00 15.6 22 Este 35 Este 0 1005.2 2.2 87
2020-03-26 20:00:00 16.5 11 Sudoeste 30 Sudoeste 0 1004 1.2 84
2020-03-26 19:00:00 17.6 24 Sudoeste 41 Sudoeste 0 1003.5 0.4 78
2020-03-26 18:00:00 18.9 28 Sudoeste 39 Sudoeste 0 1003 -0.9 73
2020-03-26 17:00:00 19.2 31 Sudoeste 48 Sudoeste 0 1002.8 -2 70
2020-03-26 16:00:00 19.2 29 Sudoeste 42 Sudoeste 0 1003.1 -2.5 72
2020-03-26 15:00:00 19.1 28 Sudoeste 41 Sudoeste 0 1003.9 -2.5 72
2020-03-26 14:00:00 18.8 30 Sudoeste 39 Sudoeste 0 1004.8 -2.3 73
2020-03-26 13:00:00 18.2 26 Sudoeste 41 Sudoeste 0 1005.6 -1.9 76
2020-03-26 12:00:00 17.1 13 Sur 18 Sur 0 1006.4 -1.3 68
2020-03-26 11:00:00 15.7 11 Sudoeste 17 Sudoeste 0 1007.1 -1 73
2020-03-26 10:00:00 15.5 9 Sudoeste 15 Sudoeste 0 1007.5 -0.9 72
2020-03-26 09:00:00 13.9 3 Oeste 9 Norte 0 1007.7 -0.6 72
2020-03-26 08:00:00 10.3 9 Norte 13 Noroeste 0 1008.1 -0.7 84
2020-03-26 07:00:00 9.1 10 Noroeste 15 Noroeste 0 1008.4 -1.3 85
2020-03-26 06:00:00 10.9 0 Calma 9 Oeste 0 1008.3 -2.2 79
2020-03-26 05:00:00 9.7 8 Norte 15 Norte 0 1008.8 -2.6 81
2020-03-26 04:00:00 10 11 Noroeste 17 Noroeste 0 1009.7 -2.7 81
2020-03-26 03:00:00 10.3 11 Noroeste 21 Oeste 0 1010.5 -2.5 81
2020-03-26 02:00:00 10.7 10 Oeste 17 Sudoeste 0 1011.4 -2.3 79
2020-03-26 01:00:00 11.2 12 Oeste 15 Sudoeste 0 1012.4 -1.6 76
2020-03-26 00:00:00 10.9 7 Oeste 13 Oeste 0 1013 -1.1 77
2020-03-25 23:00:00 11.8 12 Oeste 17 Sudoeste 0 1013.7 -0.1 76
2020-03-25 22:00:00 12.3 11 Sudoeste 17 Oeste 0 1014 0.4 73
2020-03-25 21:00:00 13.4 9 Sudoeste 17 Sudoeste 0 1014.1 0.6 66
2020-03-25 20:00:00 13.1 10 Oeste 13 Oeste 0 1013.8 0 69
2020-03-25 19:00:00 14.4 9 Sudoeste 21 Oeste 0 1013.6 -0.4 59
2020-03-25 18:00:00 15.4 15 Sudoeste 26 Sudoeste 0 1013.5 -1.1 56
2020-03-25 17:00:00 15.7 15 Sudoeste 35 Oeste 0 1013.8 -0.5 56
2020-03-25 16:00:00 14.4 18 Sudoeste 33 Sudoeste 0 1014 -0.1 65
2020-03-25 15:00:00 13.8 21 Sudoeste 35 Oeste 0 1014.6 0.6 67
2020-03-25 14:00:00 15 14 Sur 21 Sudeste 0 1014.3 0.4 56
2020-03-25 13:00:00 15.7 10 Sur 24 Este 0 1014.1 0.2 52
2020-03-25 12:00:00 16 16 Este 28 Este 0 1014 0.7 49
2020-03-25 11:00:00 15.8 19 Nordeste 37 Nordeste 0 1013.9 0.9 47
2020-03-25 10:00:00 15.4 22 Nordeste 37 Nordeste 0 1013.9 1.2 46
2020-03-25 09:00:00 14.3 13 Nordeste 33 Nordeste 0 1013.3 1.1 48
2020-03-25 08:00:00 13.7 22 Nordeste 48 Nordeste 0 1013 0.9 47
2020-03-25 07:00:00 13.2 28 Nordeste 42 Nordeste 0 1012.7 1.1 51
2020-03-25 06:00:00 13.3 23 Nordeste 41 Norte 0 1012.2 0.3 54
2020-03-25 05:00:00 13.5 21 Norte 50 Nordeste 0 1012.1 0.2 56
2020-03-25 04:00:00 13.7 24 Nordeste 46 Nordeste 0 1011.6 -0.3 55
2020-03-25 03:00:00 13.9 19 Norte 45 Nordeste 0 1011.9 0.5 58
2020-03-25 02:00:00 14.2 31 Nordeste 54 Nordeste 0 1011.9 0.7 60
2020-03-25 01:00:00 14.3 22 Nordeste 46 Nordeste 0 1011.9 1.3 63
2020-03-25 00:00:00 14.9 24 Nordeste 54 Nordeste 0 1011.4 1.1 65
2020-03-24 23:00:00 15 32 Nordeste 48 Nordeste 0 1011.2 2 66
2020-03-24 22:00:00 14 14 Nordeste 41 Nordeste 0 1010.6 1.8 79
2020-03-24 21:00:00 14.9 27 Nordeste 52 Nordeste 0 1010.3 2.1 71
2020-03-24 20:00:00 14.7 31 Nordeste 59 Nordeste 0 1009.2 1.9 67
2020-03-24 19:00:00 15.2 30 Nordeste 72 Nordeste 0 1008.8 1.6 61
2020-03-24 18:00:00 15.1 43 Nordeste 68 Nordeste 0 1008.2 0.8 69
2020-03-24 17:00:00 15.6 34 Nordeste 63 Nordeste 0 1007.3 -0.4 73
2020-03-24 16:00:00 15.2 28 Nordeste 55 Nordeste 0.2 1007.2 -0.4 79
2020-03-24 15:00:00 15.8 19 Nordeste 52 Norte 0 1007.4 -0.2 74
2020-03-24 14:00:00 15.3 19 Nordeste 46 Norte 0.9 1007.7 1.3 75
2020-03-24 13:00:00 14.8 25 Norte 46 Norte 0.7 1007.6 2.1 78
2020-03-24 12:00:00 15.8 28 Nordeste 89 Nordeste 0 1007.6 2.2 66
2020-03-24 11:00:00 17.5 55 Norte 82 Nordeste 0 1006.4 0.5 57
2020-03-24 10:00:00 16.7 56 Nordeste 85 Norte 0 1005.5 -0.8 59
2020-03-24 09:00:00 16.7 47 Nordeste 78 Norte 0 1005.4 -0.7 57
2020-03-24 08:00:00 16.3 36 Nordeste 59 Nordeste 0 1005.9 0.2 59
2020-03-24 07:00:00 15.6 21 Norte 55 Nordeste 0 1006.3 0.7 63
2020-03-24 06:00:00 15.5 27 Nordeste 52 Nordeste 0 1006.1 0.3 63
2020-03-24 05:00:00 15.8 24 Norte 42 Norte 0 1005.7 -1.3 58
2020-03-24 04:00:00 16 22 Noroeste 39 Noroeste 0 1005.6 -1.2 57
2020-03-24 03:00:00 16 19 Norte 42 Norte 0 1005.8 -1.8 57
2020-03-24 02:00:00 15.6 18 Norte 59 Norte 0 1007 -0.6 60
2020-03-24 01:00:00 15.9 46 Nordeste 72 Nordeste 0 1006.8 -1.1 57
2020-03-24 00:00:00 14.9 36 Nordeste 63 Nordeste 0 1007.6 -0.5 70
2020-03-23 23:00:00 16 44 Nordeste 68 Nordeste 0 1007.6 -0.3 65
2020-03-23 22:00:00 15.7 42 Nordeste 63 Nordeste 0 1007.9 -0.1 68
2020-03-23 21:00:00 15.7 44 Nordeste 63 Nordeste 0 1008.1 0 69
2020-03-23 20:00:00 16 35 Nordeste 52 Nordeste 0 1007.9 -0.5 66
2020-03-23 19:00:00 16.4 21 Nordeste 41 Nordeste 0 1008 -0.8 61
2020-03-23 18:00:00 16.3 17 Nordeste 30 Nordeste 0 1008.1 -1 71
2020-03-23 17:00:00 15.5 13 Nordeste 32 Norte 0.1 1008.4 -1.4 76
2020-03-23 16:00:00 15 19 Nordeste 37 Nordeste 0 1008.8 -1.4 76
2020-03-23 15:00:00 15 27 Nordeste 46 Este 0 1009.1 -1.7 79
2020-03-23 14:00:00 17.5 24 Nordeste 39 Nordeste 0 1009.8 -1.4 57
2020-03-23 13:00:00 17.5 12 Norte 21 Nordeste 0 1010.2 -1.1 59
2020-03-23 12:00:00 15.9 19 Noroeste 28 Noroeste 0 1010.8 -0.5 67
2020-03-23 11:00:00 14.4 14 Norte 24 Noroeste 0 1011.2 0.1 71
2020-03-23 10:00:00 13.2 19 Noroeste 30 Noroeste 1.5 1011.3 0.5 79
2020-03-23 09:00:00 12.6 11 Norte 26 Norte 0 1011.3 1 73
2020-03-23 08:00:00 11 18 Noroeste 33 Noroeste 0 1011.1 0.7 81
2020-03-23 07:00:00 10.4 21 Noroeste 32 Noroeste 0 1010.8 0.6 84
2020-03-23 06:00:00 10.4 16 Noroeste 24 Norte 0 1010.3 -0.2 85
2020-03-23 05:00:00 10.7 11 Noroeste 18 Norte 0 1010.4 -0.6 88
2020-03-23 04:00:00 10.8 13 Norte 21 Norte 0 1010.2 -0.9 89
2020-03-23 03:00:00 11.6 13 Norte 17 Norte 0 1010.5 -0.8 88
2020-03-23 02:00:00 11.6 9 Norte 13 Norte 0 1011 -0.3 89
2020-03-23 01:00:00 11.9 8 Nordeste 11 Nordeste 0 1011.1 0.1 92
2020-03-23 00:00:00 12.8 5 Norte 11 Norte 0 1011.3 0.6 85
2020-03-22 23:00:00 12.7 10 Norte 13 Nordeste 0 1011.3 1.5 84
2020-03-22 22:00:00 12.7 8 Nordeste 13 Este 0 1011 1.8 86
2020-03-22 21:00:00 13.1 4 Este 9 Nordeste 0 1010.7 1.9 84
2020-03-22 20:00:00 13.2 4 Este 8 Oeste 0 1009.8 1.1 82
2020-03-22 19:00:00 13.7 4 Sudoeste 9 Sur 0 1009.2 0.4 77
2020-03-22 18:00:00 13.9 6 Sur 13 Sur 0 1008.8 -0.2 74
2020-03-22 17:00:00 14.3 9 Sur 15 Sur 0 1008.7 -0.5 77
2020-03-22 16:00:00 14.6 8 Sur 15 Sur 0 1008.8 -0.8 76
2020-03-22 15:00:00 14.1 10 Sur 15 Sur 0 1009 -0.7 80
2020-03-22 14:00:00 12.8 6 Sudeste 15 Sudeste 0 1009.2 -0.6 84
2020-03-22 13:00:00 12.8 13 Sudeste 17 Este 0.1 1009.6 0.4 90
2020-03-22 12:00:00 13 7 Sudeste 11 Sudeste 0.1 1009.7 0.9 87
2020-03-22 11:00:00 12 2 Este 13 Este 0.6 1009.8 1.1 91
2020-03-22 10:00:00 12.1 11 Este 17 Este 0 1009.2 0.9 90
2020-03-22 09:00:00 11.5 9 Noroeste 15 Noroeste 1.4 1008.8 0.8 90
2020-03-22 08:00:00 11.1 6 Noroeste 17 Noroeste 1.5 1008.7 0.8 91
2020-03-22 07:00:00 11.7 5 Noroeste 13 Noroeste 0.7 1008.3 0 86
2020-03-22 06:00:00 11.8 11 Oeste 24 Oeste 0.2 1008 -0.6 85
2020-03-22 05:00:00 12.2 6 Noroeste 9 Noroeste 0.1 1007.9 -1.1 86
2020-03-22 04:00:00 13.2 9 Oeste 21 Sudoeste 0 1008.3 -1.1 75
2020-03-22 03:00:00 13 9 Oeste 32 Oeste 0 1008.6 -1.1 73
2020-03-22 02:00:00 13.8 27 Sudoeste 46 Oeste 0 1009 -1 69
2020-03-22 01:00:00 13.8 21 Oeste 30 Oeste 0 1009.4 -0.9 70
2020-03-22 00:00:00 14.2 14 Oeste 21 Oeste 0 1009.7 0.7 66
2020-03-21 23:00:00 14.8 11 Oeste 26 Oeste 0 1010 1.4 60
2020-03-21 22:00:00 15.7 19 Oeste 39 Oeste 0 1010.3 2.3 65
2020-03-21 21:00:00 14.8 27 Sudoeste 52 Sudoeste 0 1009 1.4 72
2020-03-21 20:00:00 15.5 34 Oeste 48 Oeste 0 1008.6 0.8 70
2020-03-21 19:00:00 16.5 26 Sudoeste 54 Oeste 0 1008 -0.3 57
2020-03-21 18:00:00 17.5 36 Sudoeste 52 Oeste 0 1007.6 -1.3 56
2020-03-21 17:00:00 18 28 Sudoeste 45 Sudoeste 0 1007.8 -2.1 56
2020-03-21 16:00:00 17.9 35 Sudoeste 46 Sudoeste 0 1008.3 -2.2 60
2020-03-21 15:00:00 17.2 29 Sudoeste 39 Sudoeste 0 1008.9 -1.6 71
2020-03-21 14:00:00 16.4 22 Sudoeste 35 Sur 0 1009.9 -1 74
2020-03-21 13:00:00 16.3 24 Sur 42 Oeste 0 1010.5 -1 71
2020-03-21 12:00:00 16.1 23 Oeste 41 Norte 0.4 1010.5 -1.2 70
2020-03-21 11:00:00 12.3 17 Norte 24 Norte 1.3 1010.9 0.8 86
2020-03-21 10:00:00 11.8 15 Norte 35 Noroeste 3.8 1011.5 1.4 89
2020-03-21 09:00:00 11.5 23 Noroeste 39 Noroeste 6.4 1011.7 1.8 91
2020-03-21 08:00:00 14.4 14 Nordeste 22 Nordeste 0 1010.1 0.1 74
2020-03-21 07:00:00 14.9 13 Nordeste 26 Nordeste 0 1010.1 -0.6 68
2020-03-21 06:00:00 15.6 19 Nordeste 28 Este 0 1009.9 -1.5 61
2020-03-21 05:00:00 15.6 5 Nordeste 26 Nordeste 0 1010 -1.8 64
2020-03-21 04:00:00 15.4 14 Nordeste 18 Este 0 1010.7 -1.6 67
2020-03-21 03:00:00 15.7 8 Nordeste 22 Nordeste 0 1011.4 -1.8 66
2020-03-21 02:00:00 15.6 18 Nordeste 30 Nordeste 0 1011.8 -1.6 70
2020-03-21 01:00:00 15.6 15 Este 26 Este 0 1012.3 -1.3 72
2020-03-21 00:00:00 15.9 17 Nordeste 28 Nordeste 0 1013.2 -0.1 68
2020-03-20 23:00:00 15.9 21 Nordeste 32 Nordeste 0 1013.4 1.1 67
2020-03-20 22:00:00 15.8 26 Nordeste 37 Este 0 1013.6 2.1 71
2020-03-20 21:00:00 15.7 29 Este 45 Este 0 1013.3 2.8 73
2020-03-20 20:00:00 15.7 32 Este 50 Nordeste 0 1012.3 2.1 69
2020-03-20 19:00:00 16.4 38 Este 54 Este 0 1011.5 1 66
2020-03-20 18:00:00 18 36 Este 55 Este 0 1010.5 -0.6 55
2020-03-20 17:00:00 18.9 37 Este 54 Nordeste 0 1010.2 -1.9 53
2020-03-20 16:00:00 20.1 37 Este 50 Este 0 1010.5 -2.3 50
2020-03-20 15:00:00 19.3 34 Este 46 Este 0 1011.1 -2.5 52
2020-03-20 14:00:00 20.2 26 Nordeste 45 Nordeste 0 1012.1 -1.8 49
2020-03-20 13:00:00 19 13 Oeste 54 Nordeste 0 1012.8 -1.2 50
2020-03-20 12:00:00 18.5 35 Nordeste 55 Nordeste 0 1013.6 0.6 52
2020-03-20 11:00:00 17.5 26 Nordeste 59 Nordeste 0 1013.9 1.9 55
2020-03-20 10:00:00 16.9 41 Nordeste 61 Nordeste 0 1014 1.5 55
2020-03-20 09:00:00 16.6 5 Oeste 33 Oeste 0 1013 0.5 52
2020-03-20 08:00:00 15.4 14 Noroeste 35 Nordeste 0 1012 -0.1 56
2020-03-20 07:00:00 14.7 17 Norte 28 Este 0 1012.5 0.7 56
2020-03-20 06:00:00 14.4 10 Este 18 Este 0 1012.5 -0.3 58
2020-03-20 05:00:00 14.8 10 Sur 18 Sudoeste 0 1012.1 -1.5 56
2020-03-20 04:00:00 14.3 4 Sur 13 Nordeste 0 1011.8 -2.7 57
2020-03-20 03:00:00 14.8 8 Noroeste 30 Nordeste 0 1012.8 -1.8 56
2020-03-20 02:00:00 15.5 19 Nordeste 39 Nordeste 0 1013.6 -1.2 51
2020-03-20 01:00:00 15.7 23 Nordeste 41 Nordeste 0 1014.5 0.5 52
2020-03-20 00:00:00 16 26 Nordeste 45 Nordeste 0 1014.6 0.1 50
2020-03-19 23:00:00 15.9 17 Norte 48 Nordeste 0 1014.8 0.5 50
2020-03-19 22:00:00 16.4 27 Norte 52 Nordeste 0 1014 0.4 49
2020-03-19 21:00:00 16 25 Nordeste 48 Nordeste 0 1014.5 1.1 60
2020-03-19 20:00:00 16.5 31 Nordeste 55 Nordeste 0 1014.3 0.9 60
2020-03-19 19:00:00 17.3 38 Nordeste 59 Nordeste 0 1013.6 -0.1 59
2020-03-19 18:00:00 18.2 39 Nordeste 59 Nordeste 0 1013.4 -1.3 56
2020-03-19 17:00:00 19.6 41 Nordeste 61 Nordeste 0 1013.4 -2.4 51
2020-03-19 16:00:00 19.6 41 Nordeste 63 Nordeste 0 1013.7 -2.8 51
2020-03-19 15:00:00 19.6 40 Nordeste 67 Nordeste 0 1014.7 -2.2 51
2020-03-19 14:00:00 20.5 36 Nordeste 59 Nordeste 0 1015.8 -1.4 47
2020-03-19 13:00:00 19.3 38 Nordeste 63 Nordeste 0 1016.5 -0.5 50
2020-03-19 12:00:00 19.1 36 Nordeste 58 Nordeste 0 1016.9 0.5 50
2020-03-19 11:00:00 18.9 34 Nordeste 58 Nordeste 0 1017.2 1.3 51
2020-03-19 10:00:00 18.3 33 Nordeste 54 Nordeste 0 1017 1 52
2020-03-19 09:00:00 17.2 28 Nordeste 50 Nordeste 0 1016.4 0.3 54
2020-03-19 08:00:00 16.6 19 Norte 41 Nordeste 0 1015.9 -0.4 55
2020-03-19 07:00:00 16.6 21 Nordeste 39 Nordeste 0 1016 -0.9 54
2020-03-19 06:00:00 16.3 23 Nordeste 39 Nordeste 0 1016.1 -1.3 56
2020-03-19 05:00:00 16 18 Nordeste 37 Nordeste 0 1016.3 -1.8 59
2020-03-19 04:00:00 16.3 22 Nordeste 41 Nordeste 0 1016.9 -1.5 58
2020-03-19 03:00:00 16.5 21 Nordeste 48 Nordeste 0 1017.4 -1.2 58
2020-03-19 02:00:00 16.7 24 Nordeste 42 Nordeste 0 1018.1 -0.8 58
2020-03-19 01:00:00 16.7 26 Nordeste 45 Nordeste 0 1018.4 -0.3 57
2020-03-19 00:00:00 16.9 32 Nordeste 46 Nordeste 0 1018.6 0.1 55
2020-03-18 23:00:00 16.6 31 Nordeste 55 Nordeste 0 1018.9 0.6 59
2020-03-18 22:00:00 16.9 36 Nordeste 55 Nordeste 0 1018.7 0.7 62
2020-03-18 21:00:00 16.6 33 Nordeste 52 Nordeste 0 1018.5 0.9 66
2020-03-18 20:00:00 17.1 38 Nordeste 52 Nordeste 0 1018.3 0.8 62
2020-03-18 19:00:00 17.4 29 Nordeste 58 Nordeste 0 1018 0.5 62
2020-03-18 18:00:00 18.6 44 Este 63 Nordeste 0 1017.6 -0.5 55
2020-03-18 17:00:00 20.2 44 Nordeste 65 Nordeste 0 1017.5 -1.3 47
2020-03-18 16:00:00 20.8 49 Nordeste 71 Nordeste 0 1017.5 -2.2 45
2020-03-18 15:00:00 21.2 49 Nordeste 71 Nordeste 0 1018.1 -2.3 43
2020-03-18 14:00:00 20.9 48 Nordeste 67 Nordeste 0 1018.8 -1.7 44
2020-03-18 13:00:00 20.1 48 Este 76 Nordeste 0 1019.7 -0.5 48
2020-03-18 12:00:00 18.4 39 Nordeste 68 Nordeste 0 1020.4 0.6 54
2020-03-18 11:00:00 18 45 Nordeste 65 Nordeste 0 1020.5 1 55
2020-03-18 10:00:00 17.6 35 Nordeste 61 Nordeste 0 1020.2 0.8 58
2020-03-18 09:00:00 17.3 31 Nordeste 59 Nordeste 0 1019.8 0.7 60
2020-03-18 08:00:00 16.6 36 Nordeste 61 Nordeste 0 1019.5 0.7 63
2020-03-18 07:00:00 16.3 37 Nordeste 67 Nordeste 0 1019.4 0.5 63
2020-03-18 06:00:00 16.1 44 Nordeste 63 Nordeste 0 1019.1 -0.4 66
2020-03-18 05:00:00 16.4 40 Nordeste 61 Nordeste 0 1018.8 -0.9 66
2020-03-18 04:00:00 16.4 33 Nordeste 61 Nordeste 0 1018.9 -0.6 69
2020-03-18 03:00:00 16.6 40 Nordeste 61 Nordeste 0 1019.5 -0.4 67
2020-03-18 02:00:00 16.4 40 Nordeste 61 Nordeste 0 1019.7 -0.5 70
2020-03-18 01:00:00 16.4 45 Nordeste 72 Nordeste 0 1019.5 0.4 72
2020-03-18 00:00:00 17.3 44 Nordeste 65 Nordeste 0 1019.9 1.4 67
2020-03-17 23:00:00 16.7 30 Este 59 Nordeste 0 1020.2 2.3 80
2020-03-17 22:00:00 17.7 38 Nordeste 58 Este 0 1019.1 1.6 70
2020-03-17 21:00:00 17.5 32 Nordeste 54 Nordeste 0 1018.5 1.3 73
2020-03-17 20:00:00 17.2 24 Nordeste 41 Nordeste 0 1017.9 0.5 67
2020-03-17 19:00:00 17.9 29 Nordeste 50 Nordeste 0 1017.5 -0.2 61
2020-03-17 18:00:00 18.5 30 Nordeste 52 Nordeste 0 1017.2 -0.8 57
2020-03-17 17:00:00 19.5 25 Nordeste 37 Este 0 1017.4 -1 49
2020-03-17 16:00:00 18 20 Este 37 Nordeste 0 1017.7 -1.2 58
2020-03-17 15:00:00 17.5 24 Este 37 Este 0 1018 -1.2 57
2020-03-17 14:00:00 17.4 25 Este 35 Este 0 1018.4 -0.7 59
2020-03-17 13:00:00 18.6 28 Este 41 Este 0 1018.9 -0.2 58
2020-03-17 12:00:00 18.3 19 Nordeste 35 Nordeste 0 1019.2 0.8 45
2020-03-17 11:00:00 17.6 23 Nordeste 32 Este 0 1019.1 1.5 40
2020-03-17 10:00:00 14.6 20 Noroeste 32 Noroeste 0 1019.1 2 51
2020-03-17 09:00:00 11.9 22 Noroeste 35 Noroeste 0 1018.4 2 58
2020-03-17 08:00:00 10.5 22 Noroeste 33 Noroeste 0 1017.6 1.8 60
2020-03-17 07:00:00 10.2 20 Noroeste 30 Noroeste 0 1017.1 1.7 59
2020-03-17 06:00:00 10.9 17 Norte 24 Norte 0 1016.4 1 56
2020-03-17 05:00:00 10.7 15 Norte 21 Norte 0 1015.8 0.6 58
2020-03-17 04:00:00 10.7 10 Norte 18 Norte 0 1015.4 0.6 58
2020-03-17 03:00:00 10.4 11 Noroeste 17 Noroeste 0 1015.4 0.8 58
2020-03-17 02:00:00 10.8 5 Noroeste 30 Este 0 1015.2 1.2 64
2020-03-17 01:00:00 12.5 5 Nordeste 26 Sudoeste 0 1014.8 1.7 57
2020-03-17 00:00:00 13.3 9 Este 21 Sur 0 1014.6 2.6 54
2020-03-16 23:00:00 12.9 12 Sudeste 21 Este 0 1014 3.1 55
2020-03-16 22:00:00 13.2 9 Nordeste 26 Oeste 0 1013.1 3.9 45
2020-03-16 21:00:00 15.1 23 Sudoeste 35 Sudoeste 0 1012 3.7 40
2020-03-16 20:00:00 15.7 26 Oeste 37 Oeste 0 1010.9 3.7 38
2020-03-16 19:00:00 16.8 30 Sudoeste 46 Sudoeste 0 1009.2 0.8 46
2020-03-16 18:00:00 17.8 36 Sudoeste 59 Oeste 0 1008.3 -0.3 48
2020-03-16 17:00:00 18.1 37 Sur 52 Sur 0 1007.2 -1.2 50
2020-03-16 16:00:00 18.4 35 Sudoeste 50 Sudoeste 0 1008.4 -0.1 48
2020-03-16 15:00:00 18.3 38 Sudoeste 52 Sudoeste 0 1008.6 -0.1 47
2020-03-16 14:00:00 17.5 31 Sudoeste 48 Sudoeste 0 1008.4 -0.8 54
2020-03-16 13:00:00 18.7 33 Sudoeste 48 Sudoeste 0 1008.5 -1 58
2020-03-16 12:00:00 17.8 26 Sudoeste 33 Sudoeste 0 1008.7 -0.2 85
2020-03-16 11:00:00 15.5 18 Sudoeste 35 Sudoeste 0.4 1009.2 0.7 93
2020-03-16 10:00:00 16.3 23 Sudoeste 42 Sudoeste 0 1009.5 1.1 81
2020-03-16 09:00:00 15.8 26 Sudoeste 35 Sudoeste 0 1008.9 -0.1 84
2020-03-16 08:00:00 14.7 6 Oeste 22 Sudoeste 0 1008.5 -0.5 84
2020-03-16 07:00:00 15.2 18 Sudoeste 32 Sudoeste 0 1008.4 -0.7 84
2020-03-16 06:00:00 15.1 20 Sudoeste 32 Sudoeste 0 1009 -0.6 84
2020-03-16 05:00:00 13.7 5 Oeste 9 Oeste 0 1009 -1.5 94
2020-03-16 04:00:00 14 6 Noroeste 9 Noroeste 0 1009.1 -2.4 91
2020-03-16 03:00:00 14.3 0 Calma 9 Norte 0 1009.6 -2.8 87
2020-03-16 02:00:00 15.2 8 Norte 13 Nordeste 0 1010.5 -2.3 86
2020-03-16 01:00:00 15.4 8 Norte 11 Norte 0 1011.5 -1.2 87
2020-03-16 00:00:00 15.8 7 Sudoeste 11 Sudoeste 0 1012.4 -0.1 85
2020-03-15 23:00:00 15.8 8 Sudoeste 15 Sudoeste 0 1012.8 1.4 85
2020-03-15 22:00:00 15.8 12 Sudoeste 18 Sur 0 1012.7 2 86
2020-03-15 21:00:00 15.8 13 Sur 28 Sudeste 0 1012.5 1.2 87
2020-03-15 20:00:00 16 21 Sudeste 32 Sudeste 0 1011.4 -1 86
2020-03-15 19:00:00 16.2 13 Norte 33 Noroeste 0 1010.7 -3 82
2020-03-15 18:00:00 16.7 13 Sur 32 Noroeste 0.5 1011.3 -3.1 82
2020-03-15 17:00:00 16.4 8 Noroeste 13 Noroeste 0 1012.4 -2 78
2020-03-15 16:00:00 16.9 9 Sudeste 24 Sur 0 1013.7 -1.2 78
2020-03-15 15:00:00 18.2 17 Sur 26 Sur 0 1014.4 -1 73
2020-03-15 14:00:00 19.4 19 Sur 26 Sur 0 1014.4 -1.3 66
2020-03-15 13:00:00 19.4 20 Sudoeste 32 Sur 0 1014.9 -1 66
2020-03-15 12:00:00 21.3 17 Sudeste 26 Sudeste 0 1015.4 -0.4 52
2020-03-15 11:00:00 19.1 14 Nordeste 26 Este 0 1015.7 0.3 60
2020-03-15 10:00:00 17.7 21 Este 28 Este 0 1015.9 0.2 66
2020-03-15 09:00:00 15.7 6 Este 13 Norte 0 1015.8 0.4 77
2020-03-15 08:00:00 13.1 10 Norte 15 Norte 0 1015.4 0.2 88
2020-03-15 07:00:00 11.4 5 Nordeste 15 Norte 0 1015.7 0.3 86
2020-03-15 06:00:00 12.4 6 Noroeste 21 Norte 0 1015.4 -0.6 82
2020-03-15 05:00:00 13.3 13 Norte 24 Noroeste 0 1015.2 -1.2 80
2020-03-15 04:00:00 13 10 Noroeste 17 Norte 0 1015.4 -1.2 83
2020-03-15 03:00:00 13.6 11 Norte 17 Norte 0 1016 -1.1 83
2020-03-15 02:00:00 13.3 4 Noroeste 11 Norte 0 1016.4 -0.9 86
2020-03-15 01:00:00 13.8 10 Norte 18 Nordeste 0 1016.6 -0.5 83
2020-03-15 00:00:00 13.7 12 Nordeste 17 Nordeste 0 1017.1 0.4 85
2020-03-14 23:00:00 14 10 Nordeste 17 Este 0 1017.3 0.8 87
2020-03-14 22:00:00 14.6 11 Este 17 Este 0 1017.1 1.1 86
2020-03-14 21:00:00 15.1 13 Nordeste 18 Nordeste 0 1016.7 0.9 85
2020-03-14 20:00:00 15.9 4 Oeste 15 Oeste 0 1016.5 0.9 84
2020-03-14 19:00:00 16.7 13 Sudoeste 21 Sudoeste 0 1016 0.1 85
2020-03-14 18:00:00 18 15 Sudoeste 21 Sudoeste 0 1015.8 -0.6 79
2020-03-14 17:00:00 18.9 14 Sudoeste 21 Sur 0 1015.6 -1.6 70
2020-03-14 16:00:00 19.4 15 Sur 22 Sur 0 1015.9 -2 69
2020-03-14 15:00:00 19.9 15 Sur 24 Sur 0 1016.4 -1.7 68
2020-03-14 14:00:00 19.5 14 Sur 18 Sur 0 1017.2 -1.3 69
2020-03-14 13:00:00 18.9 15 Sudoeste 22 Sudoeste 0 1017.9 -0.5 72
2020-03-14 12:00:00 18.6 15 Sudoeste 21 Sur 0 1018.1 0.3 69
2020-03-14 11:00:00 18.4 10 Sudoeste 15 Sudoeste 0 1018.5 1.4 69
2020-03-14 10:00:00 18 9 Sur 13 Sur 0 1018.4 1.8 67
2020-03-14 09:00:00 15.5 3 Norte 9 Norte 0 1017.8 1.6 74
2020-03-14 08:00:00 12.6 8 Norte 11 Norte 0 1017.1 1.3 86
2020-03-14 07:00:00 12.5 6 Nordeste 13 Norte 0 1016.6 0.4 85
2020-03-14 06:00:00 13.6 12 Norte 22 Norte 0 1016.2 -0.6 78
2020-03-14 05:00:00 13.1 13 Noroeste 17 Noroeste 0 1015.8 -1.1 82
2020-03-14 04:00:00 13 10 Norte 13 Norte 0 1016.2 -0.8 85
2020-03-14 03:00:00 13.6 5 Noroeste 8 Noroeste 0 1016.8 -0.2 82
2020-03-14 02:00:00 14.8 5 Nordeste 11 Nordeste 0 1016.9 0.1 79
2020-03-14 01:00:00 14.8 9 Nordeste 15 Norte 0 1017 0.8 79
2020-03-14 00:00:00 15 9 Nordeste 21 Nordeste 0 1017 1.4 77
2020-03-13 23:00:00 15.5 14 Nordeste 22 Este 0 1016.8 1.9 75
2020-03-13 22:00:00 15.9 14 Nordeste 22 Este 0 1016.2 1.5 75
2020-03-13 21:00:00 16.7 16 Este 24 Este 0 1015.6 1.3 75
2020-03-13 20:00:00 17.6 7 Este 24 Nordeste 0 1014.9 0.6 71
2020-03-13 19:00:00 18.4 19 Nordeste 30 Nordeste 0 1014.7 0.4 63
2020-03-13 18:00:00 19.7 15 Este 24 Este 0 1014.3 -0.1 56
2020-03-13 17:00:00 20.9 15 Este 32 Nordeste 0 1014.3 -0.7 53
2020-03-13 16:00:00 20.9 6 Sur 21 Sudoeste 0 1014.3 -1.4 63
2020-03-13 15:00:00 20.7 15 Sudoeste 22 Sudoeste 0 1014.4 -1.3 66
2020-03-13 14:00:00 19.6 14 Sudoeste 28 Sudoeste 0 1015 -0.5 72
2020-03-13 13:00:00 21 21 Sudoeste 26 Sudoeste 0 1015.7 0.9 64
2020-03-13 12:00:00 20 17 Sudoeste 22 Sudoeste 0 1015.7 1.4 63
2020-03-13 11:00:00 20 13 Sudoeste 18 Sur 0 1015.5 1.5 60
2020-03-13 10:00:00 19.9 3 Sudoeste 9 Nordeste 0 1014.8 1.2 51
2020-03-13 09:00:00 16.3 8 Norte 9 Nordeste 0 1014.3 0.8 58
2020-03-13 08:00:00 12.8 4 Oeste 8 Oeste 0 1014 0.7 74
2020-03-13 07:00:00 12.8 4 Noroeste 9 Norte 0 1013.6 0.3 71
2020-03-13 06:00:00 13 2 Norte 8 Norte 0 1013.5 -0.3 69
2020-03-13 05:00:00 13.4 0 Calma 9 Norte 0 1013.3 -0.7 70
2020-03-13 04:00:00 13.6 6 Norte -- -- 0 1013.3 -1.4 72
2020-03-13 03:00:00 13.3 4 Nordeste 5 Nordeste 0 1013.8 -1.2 76
2020-03-13 02:00:00 13.9 6 Norte 9 Norte 0 1014 -1.1 74
2020-03-13 01:00:00 13.9 7 Noroeste 9 Norte 0 1014.7 -0.1 75
2020-03-13 00:00:00 14.9 5 Norte 8 Norte 0 1015 0.4 68
2020-03-12 23:00:00 15.3 4 Nordeste 9 Este 0 1015.1 0.9 69
2020-03-12 22:00:00 16.4 3 Este 5 Este 0 1014.8 0.8 64
2020-03-12 21:00:00 17.3 4 Norte 8 Sudoeste 0 1014.6 0.9 63
2020-03-12 20:00:00 17.7 5 Sudoeste 15 Oeste 0 1014.2 0.4 61
2020-03-12 19:00:00 19.4 10 Oeste 21 Oeste 0 1014 0.2 56
2020-03-12 18:00:00 21.3 13 Oeste 22 Oeste 0 1013.7 -0.8 53
2020-03-12 17:00:00 22.2 14 Sudoeste 22 Sudoeste 0 1013.8 -1.7 55
2020-03-12 16:00:00 23.7 13 Sudoeste 18 Sudoeste 0 1013.8 -2.8 50
2020-03-12 15:00:00 23.3 12 Sudoeste 18 Sudoeste 0 1014.5 -2.6 51
2020-03-12 14:00:00 23.7 6 Sudoeste 18 Sudoeste 0 1015.5 -1.9 48
2020-03-12 13:00:00 22.1 12 Sudoeste 18 Sudoeste 0 1016.6 -0.8 59
2020-03-12 12:00:00 27.1 9 Sur 13 Sur 0 1017.1 -0.1 31
2020-03-12 11:00:00 26.9 6 Este 22 Noroeste 0 1017.4 0.5 29
2020-03-12 10:00:00 23.9 15 Norte 33 Noroeste 0 1017.4 0.7 32
2020-03-12 09:00:00 19.8 24 Noroeste 39 Noroeste 0 1017.2 0.3 37
2020-03-12 08:00:00 17.8 24 Noroeste 33 Noroeste 0 1016.9 -0.1 41
2020-03-12 07:00:00 16.4 15 Noroeste 24 Norte 0 1016.7 -0.9 46
2020-03-12 06:00:00 16.3 11 Norte 24 Norte 0 1016.9 -1.3 46
2020-03-12 05:00:00 15.6 9 Norte 17 Norte 0 1017 -2 52
2020-03-12 04:00:00 14.1 10 Noroeste 13 Noroeste 0 1017.6 -1.4 60
2020-03-12 03:00:00 14.8 11 Norte 11 Norte 0 1018.2 -0.8 56
2020-03-12 02:00:00 14.3 4 Norte 13 Oeste 0 1019 0 62
2020-03-12 01:00:00 14.3 5 Sudoeste 8 Sudoeste 0 1019 0.2 65
2020-03-12 00:00:00 15.1 5 Noroeste 11 Noroeste 0 1019 0.3 65
2020-03-11 23:00:00 15.4 0 Calma 8 Sudeste 0 1019 0.4 64
2020-03-11 22:00:00 16.6 2 Este 9 Nordeste 0 1018.8 0.2 53
2020-03-11 21:00:00 16.6 4 Nordeste 8 Norte 0 1018.7 0.1 54
2020-03-11 20:00:00 17.8 0 Calma 4 Sur 0 1018.6 -0.1 51
2020-03-11 19:00:00 20.1 0 Calma 9 Sudoeste 0 1018.6 -0.7 43
2020-03-11 18:00:00 21.3 8 Sur 11 Sur 0 1018.6 -1.3 38
2020-03-11 17:00:00 22.5 5 Sur 11 Sudoeste 0 1018.7 -2.1 34
2020-03-11 16:00:00 22.1 7 Sur 13 Sur 0 1019.3 -2.3 31
2020-03-11 15:00:00 21.9 7 Sudoeste 13 Sudoeste 0 1019.9 -2.1 36
2020-03-11 14:00:00 21.3 8 Sur 15 Sur 0 1020.8 -1.5 41
2020-03-11 13:00:00 19.4 9 Sur 17 Sur 0 1021.6 -0.7 60
2020-03-11 12:00:00 20.2 11 Sur 15 Sur 0 1022 -0.1 50
2020-03-11 11:00:00 19.3 10 Sur 13 Sur 0 1022.3 0.6 59
2020-03-11 10:00:00 17.7 4 Sur 9 Sur 0 1022.3 0.7 69
2020-03-11 09:00:00 16.6 4 Sur 9 Norte 0 1022.1 0.6 72
2020-03-11 08:00:00 13 8 Noroeste 11 Noroeste 0 1021.7 0.2 71
2020-03-11 07:00:00 12.4 9 Noroeste 13 Noroeste 0 1021.6 -0.1 75
2020-03-11 06:00:00 12.5 4 Noroeste 21 Noroeste 0 1021.5 -0.7 67
2020-03-11 05:00:00 13.7 15 Noroeste 22 Noroeste 0 1021.5 -1 61
2020-03-11 04:00:00 13.6 13 Noroeste 21 Noroeste 0 1021.7 -1.4 61
2020-03-11 03:00:00 13.6 14 Noroeste 21 Noroeste 0 1022.2 -1.4 61
2020-03-11 02:00:00 14.4 9 Nordeste 22 Noroeste 0 1022.5 -1.4 57
2020-03-11 01:00:00 13.9 16 Noroeste 22 Noroeste 0 1023.1 -0.9 61
2020-03-11 00:00:00 13.3 10 Norte 13 Noroeste 0 1023.6 -0.4 68
2020-03-10 23:00:00 13.7 8 Norte 11 Norte 0 1023.9 -0.1 68
2020-03-10 22:00:00 14.1 6 Norte 15 Norte 0 1024 0.1 70
2020-03-10 21:00:00 14.9 6 Norte 13 Norte 0 1024 0.2 72
2020-03-10 20:00:00 15.9 5 Norte 8 Norte 0 1024 0.3 71
2020-03-10 19:00:00 16.4 0 Calma 11 Sudoeste 0 1023.9 0.1 77
2020-03-10 18:00:00 18.1 8 Sur 13 Sudoeste 0 1023.8 -0.3 70
2020-03-10 17:00:00 18.5 8 Sur 18 Sur 0 1023.7 -0.5 70
2020-03-10 16:00:00 19.4 14 Sur 24 Sur 0 1023.8 -1.1 69
2020-03-10 15:00:00 19.4 17 Sur 26 Sur 0 1024.1 -0.9 66
2020-03-10 14:00:00 20.2 17 Sur 26 Sur 0 1024.2 -0.5 59
2020-03-10 13:00:00 19.9 13 Sur 21 Sudoeste 0 1024.9 0.7 61
2020-03-10 12:00:00 18.4 13 Sudoeste 18 Sudoeste 0 1025 2 73
2020-03-10 11:00:00 18.1 9 Sudoeste 15 Sudoeste 0 1024.7 2.7 72
2020-03-10 10:00:00 16.9 8 Sudoeste 13 Sur 0 1024.2 2.9 75
2020-03-10 09:00:00 16.4 5 Sudeste 11 Norte 0 1023 2.4 74
2020-03-10 08:00:00 12.2 8 Norte 13 Norte 0 1022 1.9 88
2020-03-10 07:00:00 12 8 Norte 11 Norte 0 1021.3 1.4 88
2020-03-10 06:00:00 12.5 5 Nordeste 9 Nordeste 0 1020.6 0.8 87
2020-03-10 05:00:00 13.1 3 Nordeste 15 Oeste 0 1020.1 0 90
2020-03-10 04:00:00 14.9 13 Sur 30 Oeste 0 1019.9 -0.4 82
2020-03-10 03:00:00 20 15 Noroeste 26 Noroeste 0 1019.8 -0.5 37
2020-03-10 02:00:00 20.4 10 Norte 39 Noroeste 0 1020.1 -0.4 32
2020-03-10 01:00:00 19.6 12 Noroeste 42 Norte 0 1020.3 0.2 35
2020-03-10 00:00:00 15.9 10 Nordeste 24 Nordeste 0 1020.3 0.9 52
2020-03-09 23:00:00 13.2 8 Nordeste 11 Norte 0 1020.5 1.4 67
2020-03-09 22:00:00 14.3 8 Nordeste 11 Norte 0 1020.1 1.3 71
2020-03-09 21:00:00 14.8 8 Noroeste 11 Noroeste 0 1019.4 0.7 78
2020-03-09 20:00:00 16.1 4 Oeste 8 Oeste 0 1019.1 0.1 77
2020-03-09 19:00:00 17.7 5 Sudeste 9 Sudeste 0 1018.8 -0.6 73
2020-03-09 18:00:00 20.1 7 Sur 11 Sur 0 1018.7 -1.3 50
2020-03-09 17:00:00 21.5 6 Sur 13 Sudoeste 0 1019 -1.7 41
2020-03-09 16:00:00 21.7 8 Sur 13 Sudoeste 0 1019.4 -2.1 43
2020-03-09 15:00:00 20.5 10 Sudoeste 17 Sudoeste 0 1020 -2.1 49
2020-03-09 14:00:00 20.3 10 Sudoeste 15 Sudoeste 0 1020.7 -1.2 53
2020-03-09 13:00:00 19.4 8 Sudoeste 15 Sur 0 1021.5 0 66
2020-03-09 12:00:00 18.6 8 Sur 13 Sur 0 1022.1 1.6 74
2020-03-09 11:00:00 17.6 6 Sur 15 Sudoeste 0 1021.9 2 75
2020-03-09 10:00:00 16.2 7 Sur 13 Sur 0 1021.5 2.1 80
2020-03-09 09:00:00 14.9 0 Calma 13 Nordeste 0 1020.5 1.1 89
2020-03-09 08:00:00 12.3 9 Nordeste 17 Nordeste 0 1019.9 0.6 97
2020-03-09 07:00:00 11.5 12 Nordeste 17 Nordeste 0 1019.4 -0.2 95
2020-03-09 06:00:00 12 6 Nordeste 15 Norte 0 1019.4 -0.6 94
2020-03-09 05:00:00 12.5 9 Nordeste 15 Nordeste 0 1019.3 -0.7 95
2020-03-09 04:00:00 12.5 7 Sur 13 Este 0 1019.6 -0.5 95
2020-03-09 03:00:00 13.5 6 Oeste 22 Oeste 0 1020 -0.9 89
2020-03-09 02:00:00 14.2 16 Oeste 30 Oeste 0 1020 -1.4 85
2020-03-09 01:00:00 14.7 16 Sudoeste 24 Oeste 0 1020.1 -1.6 85
2020-03-09 00:00:00 13.8 2 Norte 11 Nordeste 0 1020.9 -0.5 78
2020-03-08 23:00:00 14 3 Noroeste 13 Oeste 0 1021.4 0.3 79
2020-03-08 22:00:00 14.9 10 Sudoeste 21 Oeste 0 1021.7 0.8 80
2020-03-08 21:00:00 14.9 12 Sudoeste 17 Oeste 0 1021.4 0.6 72
2020-03-08 20:00:00 14.8 4 Sudoeste 24 Sur 0 1021.1 0 83
2020-03-08 19:00:00 16 20 Sur 32 Sur 0 1020.9 -0.6 81
2020-03-08 18:00:00 17.5 18 Sur 28 Sur 0 1020.8 -1.3 78
2020-03-08 17:00:00 17.9 15 Sur 26 Sur 0 1021.1 -1.6 73
2020-03-08 16:00:00 18.3 17 Sur 26 Sur 0 1021.5 -2 71
2020-03-08 15:00:00 18.6 19 Sur 24 Sudoeste 0 1022.1 -1.8 73
2020-03-08 14:00:00 18.4 15 Sur 22 Sudoeste 0 1022.7 -1.2 71
2020-03-08 13:00:00 17.8 10 Sur 17 Sur 0 1023.5 -0.2 71
2020-03-08 12:00:00 17 13 Sur 18 Sudoeste 0 1023.9 0.5 68
2020-03-08 11:00:00 17.4 8 Sur 13 Sur 0 1023.9 1 57
2020-03-08 10:00:00 16.7 8 Sur 15 Oeste 0 1023.7 1.1 56
2020-03-08 09:00:00 12.9 8 Noroeste 22 Noroeste 0 1023.4 1.5 54
2020-03-08 08:00:00 10.4 12 Noroeste 22 Noroeste 0 1022.9 0.8 69
2020-03-08 07:00:00 9.8 13 Noroeste 21 Noroeste 0 1022.6 0.4 77
2020-03-08 06:00:00 9 6 Nordeste 9 Norte 0 1021.9 -0.7 88
2020-03-08 05:00:00 10.2 4 Noroeste 15 Norte 0 1022.1 -0.8 89
2020-03-08 04:00:00 10.2 4 Oeste 11 Noroeste 0 1022.2 -0.9 90
2020-03-08 03:00:00 10.6 10 Noroeste 13 Noroeste 0 1022.6 -1 90
2020-03-08 02:00:00 10.9 10 Norte 13 Noroeste 0 1022.9 -0.9 90
2020-03-08 01:00:00 11.8 7 Norte 11 Norte 0 1023.1 -0.3 88
2020-03-08 00:00:00 11.9 8 Norte 13 Norte 0 1023.6 0.8 85
2020-03-07 23:00:00 12.4 8 Norte 11 Nordeste 0 1023.8 1.6 84
2020-03-07 22:00:00 12.6 6 Nordeste 9 Nordeste 0 1023.4 1.8 86
2020-03-07 21:00:00 13.3 5 Este 11 Sur 0 1022.8 1.9 84
2020-03-07 20:00:00 14.2 9 Sur 17 Sur 0 1022.2 1.3 83
2020-03-07 19:00:00 15 10 Sur 15 Sur 0 1021.6 1 81
2020-03-07 18:00:00 16.1 9 Sur 22 Sur 0 1020.9 0.2 74
2020-03-07 17:00:00 17.3 15 Sur 28 Sur 0 1020.9 -0.2 68
2020-03-07 16:00:00 17.5 21 Sur 35 Sudoeste 0 1020.6 -1.1 65
2020-03-07 15:00:00 17.7 26 Sudoeste 37 Sudoeste 0 1020.7 -1.6 56
2020-03-07 14:00:00 17.9 29 Sudoeste 42 Sudoeste 0 1021.1 -1.1 60
2020-03-07 13:00:00 18 29 Sudoeste 35 Sudoeste 0 1021.7 -0.2 61
2020-03-07 12:00:00 18.3 18 Sudoeste 28 Sudoeste 0 1022.3 0.9 60
2020-03-07 11:00:00 17.6 19 Sudoeste 26 Sudoeste 0 1022.2 1.3 59
2020-03-07 10:00:00 17.4 14 Sudoeste 21 Oeste 0 1021.9 1.3 54
2020-03-07 09:00:00 15.6 10 Noroeste 17 Noroeste 0 1021.4 1.2 55
2020-03-07 08:00:00 12.8 13 Noroeste 17 Noroeste 0 1020.9 1.2 56
2020-03-07 07:00:00 13.5 14 Noroeste 21 Noroeste 0 1020.6 0.7 42
2020-03-07 06:00:00 14.9 11 Noroeste 35 Noroeste 0 1020.2 0.4 33
2020-03-07 05:00:00 15.7 20 Noroeste 35 Norte 0 1019.7 -0.2 34
2020-03-07 04:00:00 16.1 6 Norte 28 Noroeste 0 1019.9 0.3 47
2020-03-07 03:00:00 16.3 19 Norte 37 Noroeste 0 1019.8 0.1 35
2020-03-07 02:00:00 15.8 15 Noroeste 33 Norte 0 1019.9 0.8 36
2020-03-07 01:00:00 16.2 23 Noroeste 39 Norte 0 1019.6 1.1 35
2020-03-07 00:00:00 16.8 22 Noroeste 42 Noroeste 0 1019.7 2.3 34
2020-03-06 23:00:00 16.6 12 Norte 42 Noroeste 0 1019.1 2.7 33
2020-03-06 22:00:00 16.7 16 Norte 45 Norte 0 1018.5 3.6 42
2020-03-06 21:00:00 18.2 26 Norte 39 Norte 0 1017.4 3.2 34
2020-03-06 20:00:00 16.6 13 Nordeste 30 Norte 0 1016.4 2.9 58
2020-03-06 19:00:00 18.1 4 Noroeste 37 Sur 0 1014.9 1.9 48
2020-03-06 18:00:00 18.4 14 Sudoeste 37 Sudoeste 0 1014.2 0.8 58
2020-03-06 17:00:00 19 24 Sudoeste 35 Sudoeste 0 1013.5 -0.4 58
2020-03-06 16:00:00 19.3 19 Sudoeste 28 Sudoeste 0 1013 -1.7 57
2020-03-06 15:00:00 18.8 16 Sudoeste 30 Sudoeste 0 1013.4 -1.8 56
2020-03-06 14:00:00 20 18 Sur 26 Sudoeste 0 1013.9 -1.2 41
2020-03-06 13:00:00 19.9 18 Sudoeste 33 Sudoeste 0 1014.7 -0.3 33
2020-03-06 12:00:00 18.4 24 Sudoeste 37 Sudoeste 0 1015.2 0.7 53
2020-03-06 11:00:00 19.3 23 Oeste 33 Oeste 0 1015.1 1.1 40
2020-03-06 10:00:00 18.8 20 Oeste 45 Noroeste 0 1015 1.5 27
2020-03-06 09:00:00 16.4 27 Noroeste 46 Noroeste 0 1014.5 1.1 31
2020-03-06 08:00:00 15.2 33 Noroeste 58 Noroeste 0 1014 1.2 35
2020-03-06 07:00:00 15.4 33 Noroeste 54 Noroeste 0 1013.5 0.7 33
2020-03-06 06:00:00 15.3 28 Noroeste 45 Noroeste 0 1013.4 0.7 36
2020-03-06 05:00:00 16 28 Noroeste 52 Noroeste 0 1012.8 1.4 35
2020-03-06 04:00:00 16.4 28 Noroeste 45 Noroeste 0 1012.8 1.5 38
2020-03-06 03:00:00 17.4 26 Noroeste 54 Noroeste 0 1012.7 0.8 34
2020-03-06 02:00:00 17.9 34 Noroeste 54 Norte 0 1011.4 -0.8 32
2020-03-06 01:00:00 17.2 17 Oeste 30 Noroeste 0 1011.3 0 36
2020-03-06 00:00:00 16 10 Sur 22 Sur 0 1011.9 1.2 63
2020-03-05 23:00:00 16.6 11 Sudoeste 50 Noroeste 0 1012.2 1.8 66
2020-03-05 22:00:00 19.3 44 Noroeste 71 Noroeste 0 1011.3 1.8 35
2020-03-05 21:00:00 18.7 22 Noroeste 41 Noroeste 0 1010.7 2.2 41
2020-03-05 20:00:00 17.6 23 Sudoeste 45 Sudoeste 0 1010.4 2.5 70
2020-03-05 19:00:00 17.8 24 Sudoeste 46 Sudoeste 0 1009.5 1.4 72
2020-03-05 18:00:00 18.6 23 Sudoeste 50 Sudoeste 0 1008.5 -0.1 70
2020-03-05 17:00:00 19.5 36 Sudoeste 55 Sudoeste 0 1007.9 -1.7 66
2020-03-05 16:00:00 19.9 38 Sudoeste 55 Sudoeste 0 1008.1 -3.1 65
2020-03-05 15:00:00 21 40 Sudoeste 58 Sudoeste 0 1008.6 -3.2 59
2020-03-05 14:00:00 19.6 12 Sur 22 Sudoeste 0 1009.6 -2.6 66
2020-03-05 13:00:00 18.8 10 Sur 24 Sur 0 1011.2 -1.2 73
2020-03-05 12:00:00 18.5 12 Sur 21 Sur 0 1011.8 -0.4 70
2020-03-05 11:00:00 17.9 11 Sur 15 Sur 0 1012.2 -0.1 65
2020-03-05 10:00:00 18.4 4 Sur 9 Sur 0 1012.4 0 60
2020-03-05 09:00:00 14.6 3 Sudeste 5 Sudeste 0 1012.2 -0.5 72
2020-03-05 08:00:00 11.2 6 Norte 9 Norte 0 1012.3 -0.5 84
2020-03-05 07:00:00 10.4 3 Este 11 Norte 0 1012.4 -0.8 86
2020-03-05 06:00:00 11.3 0 Calma 13 Norte 0 1012.7 -1.1 81
2020-03-05 05:00:00 12.3 0 Calma 11 Norte 0 1012.8 -1.3 85
2020-03-05 04:00:00 12.8 6 Norte 9 Norte 0 1013.2 -1 82
2020-03-05 03:00:00 13.7 8 Norte 15 Norte 0 1013.8 -1.2 77
2020-03-05 02:00:00 14.2 10 Nordeste 15 Nordeste 0 1014.1 -1 73
2020-03-05 01:00:00 13.4 8 Norte 11 Norte 0 1014.2 -1.1 86
2020-03-05 00:00:00 13.9 4 Norte 15 Nordeste 0 1015 -0.3 85